Terminal Aerodrome Forecast
Issued by NWS

Home | Current Version | Previous Version | Text Only | Print | Product List | Glossary On
Versions: 1 2 3 4 5 6 7 8 9 10 11 12 13 14 15 16 17 18 19 20 21 22
000
FTUS43 KSGF 230500
TAFJLN
TAF
KJLN 230520Z 2306/2406 12007KT P6SM OVC040
     FM230800 12007KT P6SM VCSH SCT025 OVC040
      TEMPO 2310/2314 6SM -SHRA BR OVC025
     FM231800 14010KT P6SM -SHRA VCTS BKN040CB
     FM240100 12007KT 6SM -SHRA BR VCTS BKN040CB=

USA.gov is the U.S. government's official web portal to all federal, state and local government web resources and services.